sensor_id;sensor_type;location;lat;lon;timestamp;pressure;altitude;pressure_sealevel;temperature;humidity
35331;BME280;21441;52.190;20.910;2023-02-28T00:00:39;101644.91;;;-2.66;78.07
35331;BME280;21441;52.190;20.910;2023-02-28T00:03:18;101636.44;;;-2.73;78.56
35331;BME280;21441;52.190;20.910;2023-02-28T00:05:45;101646.72;;;-2.68;78.43
35331;BME280;21441;52.190;20.910;2023-02-28T00:08:12;101651.25;;;-2.74;78.93
35331;BME280;21441;52.190;20.910;2023-02-28T00:10:41;101647.81;;;-2.74;78.95
35331;BME280;21441;52.190;20.910;2023-02-28T00:13:09;101646.28;;;-2.81;79.27
35331;BME280;21441;52.190;20.910;2023-02-28T00:15:36;101642.72;;;-2.79;79.42
35331;BME280;21441;52.190;20.910;2023-02-28T00:18:04;101643.47;;;-2.75;78.12
35331;BME280;21441;52.190;20.910;2023-02-28T00:20:31;101644.97;;;-2.68;77.38
35331;BME280;21441;52.190;20.910;2023-02-28T00:22:59;101643.47;;;-2.75;77.45
35331;BME280;21441;52.190;20.910;2023-02-28T00:25:26;101656.44;;;-2.72;77.18
35331;BME280;21441;52.190;20.910;2023-02-28T00:27:55;101656.56;;;-2.77;77.83
35331;BME280;21441;52.190;20.910;2023-02-28T00:30:23;101626.13;;;-3.03;78.95
35331;BME280;21441;52.190;20.910;2023-02-28T00:32:51;101656.84;;;-2.84;79.29
35331;BME280;21441;52.190;20.910;2023-02-28T00:35:18;101655.72;;;-2.77;78.99
35331;BME280;21441;52.190;20.910;2023-02-28T00:37:47;101653.19;;;-2.79;79.36
35331;BME280;21441;52.190;20.910;2023-02-28T00:40:15;101650.00;;;-2.88;79.42
35331;BME280;21441;52.190;20.910;2023-02-28T00:42:43;101655.09;;;-2.85;80.24
35331;BME280;21441;52.190;20.910;2023-02-28T00:45:11;101645.78;;;-2.93;79.65
35331;BME280;21441;52.190;20.910;2023-02-28T00:47:39;101655.06;;;-2.84;79.77
35331;BME280;21441;52.190;20.910;2023-02-28T00:50:07;101649.97;;;-2.87;79.66
35331;BME280;21441;52.190;20.910;2023-02-28T00:52:35;101655.22;;;-2.88;80.15
35331;BME280;21441;52.190;20.910;2023-02-28T00:55:03;101654.34;;;-2.87;79.42
35331;BME280;21441;52.190;20.910;2023-02-28T00:57:31;101651.00;;;-2.93;79.33
35331;BME280;21441;52.190;20.910;2023-02-28T00:59:58;101652.81;;;-2.95;79.50
35331;BME280;21441;52.190;20.910;2023-02-28T01:02:27;101650.19;;;-2.95;79.88
35331;BME280;21441;52.190;20.910;2023-02-28T01:04:54;101650.28;;;-2.96;80.03
35331;BME280;21441;52.190;20.910;2023-02-28T01:07:22;101638.44;;;-3.08;80.59
35331;BME280;21441;52.190;20.910;2023-02-28T01:09:50;101625.66;;;-3.16;81.03
35331;BME280;21441;52.190;20.910;2023-02-28T01:12:17;101649.50;;;-3.00;81.23
35331;BME280;21441;52.190;20.910;2023-02-28T01:14:44;101651.28;;;-3.00;81.67
35331;BME280;21441;52.190;20.910;2023-02-28T01:17:12;101647.75;;;-2.99;81.75
35331;BME280;21441;52.190;20.910;2023-02-28T01:19:41;101632.47;;;-3.12;82.41
35331;BME280;21441;52.190;20.910;2023-02-28T01:22:08;101658.22;;;-3.01;82.70
35331;BME280;21441;52.190;20.910;2023-02-28T01:24:36;101652.31;;;-3.06;82.75
35331;BME280;21441;52.190;20.910;2023-02-28T01:27:04;101651.34;;;-3.03;82.93
35331;BME280;21441;52.190;20.910;2023-02-28T01:29:31;101651.41;;;-3.05;82.89
35331;BME280;21441;52.190;20.910;2023-02-28T01:31:59;101655.03;;;-3.09;83.61
35331;BME280;21441;52.190;20.910;2023-02-28T01:34:26;101664.50;;;-3.06;83.88
35331;BME280;21441;52.190;20.910;2023-02-28T01:36:58;101651.59;;;-3.11;84.09
35331;BME280;21441;52.190;20.910;2023-02-28T01:39:25;101641.91;;;-3.07;84.34
35331;BME280;21441;52.190;20.910;2023-02-28T01:41:53;101657.53;;;-3.06;84.61
35331;BME280;21441;52.190;20.910;2023-02-28T01:44:55;101660.94;;;-3.04;85.05
35331;BME280;21441;52.190;20.910;2023-02-28T01:47:26;101649.16;;;-3.16;85.25
35331;BME280;21441;52.190;20.910;2023-02-28T01:49:54;101659.47;;;-3.13;85.94
35331;BME280;21441;52.190;20.910;2023-02-28T01:52:24;101658.63;;;-3.13;86.06
35331;BME280;21441;52.190;20.910;2023-02-28T01:54:54;101656.84;;;-3.11;86.36
35331;BME280;21441;52.190;20.910;2023-02-28T01:57:25;101661.91;;;-3.06;86.71
35331;BME280;21441;52.190;20.910;2023-02-28T01:59:57;101662.94;;;-3.12;86.93
35331;BME280;21441;52.190;20.910;2023-02-28T02:02:27;101638.06;;;-3.22;87.03
35331;BME280;21441;52.190;20.910;2023-02-28T02:04:59;101657.44;;;-3.03;87.38
35331;BME280;21441;52.190;20.910;2023-02-28T02:07:33;101657.50;;;-3.04;87.35
35331;BME280;21441;52.190;20.910;2023-02-28T02:10:05;101654.84;;;-3.03;87.29
35331;BME280;21441;52.190;20.910;2023-02-28T02:12:57;101657.69;;;-3.11;87.62
35331;BME280;21441;52.190;20.910;2023-02-28T02:15:32;101649.84;;;-3.11;87.92
35331;BME280;21441;52.190;20.910;2023-02-28T02:18:06;101654.19;;;-3.09;88.15
35331;BME280;21441;52.190;20.910;2023-02-28T02:27:20;101659.28;;;-3.06;88.58
35331;BME280;21441;52.190;20.910;2023-02-28T02:30:17;101661.88;;;-3.05;88.58
35331;BME280;21441;52.190;20.910;2023-02-28T02:33:04;101645.72;;;-3.18;88.67
35331;BME280;21441;52.190;20.910;2023-02-28T02:35:40;101658.47;;;-3.08;88.69
35331;BME280;21441;52.190;20.910;2023-02-28T02:38:13;101658.63;;;-3.13;88.82
35331;BME280;21441;52.190;20.910;2023-02-28T02:40:49;101643.16;;;-3.19;89.11
35331;BME280;21441;52.190;20.910;2023-02-28T02:43:22;101654.25;;;-3.13;89.40
35331;BME280;21441;52.190;20.910;2023-02-28T02:45:52;101641.41;;;-3.19;88.93
35331;BME280;21441;52.190;20.910;2023-02-28T02:48:25;101658.78;;;-3.18;89.19
35331;BME280;21441;52.190;20.910;2023-02-28T02:50:59;101662.19;;;-3.16;89.15
35331;BME280;21441;52.190;20.910;2023-02-28T02:53:30;101661.13;;;-3.10;88.71
35331;BME280;21441;52.190;20.910;2023-02-28T02:56:00;101663.50;;;-3.02;87.08
35331;BME280;21441;52.190;20.910;2023-02-28T02:58:32;101665.97;;;-2.98;86.46
35331;BME280;21441;52.190;20.910;2023-02-28T03:01:02;101665.50;;;-3.11;87.11
35331;BME280;21441;52.190;20.910;2023-02-28T03:03:31;101665.63;;;-3.14;87.60
35331;BME280;21441;52.190;20.910;2023-02-28T03:06:01;101674.03;;;-3.05;88.05
35331;BME280;21441;52.190;20.910;2023-02-28T03:08:33;101633.06;;;-3.30;88.32
35331;BME280;21441;52.190;20.910;2023-02-28T03:11:03;101656.22;;;-3.19;88.29
35331;BME280;21441;52.190;20.910;2023-02-28T03:13:54;101669.06;;;-3.13;88.57
35331;BME280;21441;52.190;20.910;2023-02-28T03:16:34;101668.13;;;-3.11;88.74
35331;BME280;21441;52.190;20.910;2023-02-28T03:19:16;101676.06;;;-3.14;88.81
35331;BME280;21441;52.190;20.910;2023-02-28T03:22:01;101670.03;;;-3.16;88.67
35331;BME280;21441;52.190;20.910;2023-02-28T03:24:35;101673.50;;;-3.15;89.11
35331;BME280;21441;52.190;20.910;2023-02-28T03:27:10;101673.53;;;-3.17;89.42
35331;BME280;21441;52.190;20.910;2023-02-28T03:29:42;101679.66;;;-3.18;89.81
35331;BME280;21441;52.190;20.910;2023-02-28T03:32:17;101669.22;;;-3.18;90.18
35331;BME280;21441;52.190;20.910;2023-02-28T03:34:52;101676.09;;;-3.15;89.79
35331;BME280;21441;52.190;20.910;2023-02-28T03:37:25;101680.50;;;-3.17;89.09
35331;BME280;21441;52.190;20.910;2023-02-28T03:39:58;101684.03;;;-3.18;89.74
35331;BME280;21441;52.190;20.910;2023-02-28T03:42:29;101651.47;;;-3.35;89.92
35331;BME280;21441;52.190;20.910;2023-02-28T03:45:01;101685.78;;;-3.19;90.42
35331;BME280;21441;52.190;20.910;2023-02-28T03:47:33;101680.50;;;-3.17;90.08
35331;BME280;21441;52.190;20.910;2023-02-28T03:50:05;101681.28;;;-3.14;89.99
35331;BME280;21441;52.190;20.910;2023-02-28T03:52:39;101691.66;;;-3.12;89.37
35331;BME280;21441;52.190;20.910;2023-02-28T03:55:11;101684.78;;;-3.15;88.89
35331;BME280;21441;52.190;20.910;2023-02-28T03:57:45;101679.81;;;-3.22;88.25
35331;BME280;21441;52.190;20.910;2023-02-28T04:00:19;101690.09;;;-3.18;88.73
35331;BME280;21441;52.190;20.910;2023-02-28T04:02:48;101690.16;;;-3.19;88.95
35331;BME280;21441;52.190;20.910;2023-02-28T04:05:19;101688.19;;;-3.13;89.33
35331;BME280;21441;52.190;20.910;2023-02-28T04:07:48;101683.69;;;-3.07;87.83
35331;BME280;21441;52.190;20.910;2023-02-28T04:10:15;101688.84;;;-3.06;86.62
35331;BME280;21441;52.190;20.910;2023-02-28T04:12:43;101669.88;;;-3.11;86.36
35331;BME280;21441;52.190;20.910;2023-02-28T04:15:11;101691.44;;;-3.04;86.68
35331;BME280;21441;52.190;20.910;2023-02-28T04:17:38;101683.56;;;-3.03;86.54
35331;BME280;21441;52.190;20.910;2023-02-28T04:20:06;101685.22;;;-3.00;86.46
35331;BME280;21441;52.190;20.910;2023-02-28T04:22:36;101688.00;;;-3.06;87.04
35331;BME280;21441;52.190;20.910;2023-02-28T04:25:06;101680.28;;;-3.09;86.74
35331;BME280;21441;52.190;20.910;2023-02-28T04:27:34;101694.41;;;-3.17;87.83
35331;BME280;21441;52.190;20.910;2023-02-28T04:30:01;101683.31;;;-3.23;87.85
35331;BME280;21441;52.190;20.910;2023-02-28T04:32:29;101696.97;;;-3.15;87.90
35331;BME280;21441;52.190;20.910;2023-02-28T04:34:56;101682.47;;;-3.24;88.07
35331;BME280;21441;52.190;20.910;2023-02-28T04:37:24;101685.84;;;-3.20;88.28
35331;BME280;21441;52.190;20.910;2023-02-28T04:39:54;101684.03;;;-3.18;88.17
35331;BME280;21441;52.190;20.910;2023-02-28T04:42:23;101693.53;;;-3.16;88.07
35331;BME280;21441;52.190;20.910;2023-02-28T04:44:50;101700.38;;;-3.12;87.78
35331;BME280;21441;52.190;20.910;2023-02-28T04:47:18;101704.66;;;-3.11;87.60
35331;BME280;21441;52.190;20.910;2023-02-28T04:49:45;101680.75;;;-3.25;88.21
35331;BME280;21441;52.190;20.910;2023-02-28T04:52:13;101697.47;;;-3.30;90.12
35331;BME280;21441;52.190;20.910;2023-02-28T04:54:40;101700.69;;;-3.22;90.96
35331;BME280;21441;52.190;20.910;2023-02-28T04:57:08;101661.34;;;-3.44;90.71
35331;BME280;21441;52.190;20.910;2023-02-28T04:59:37;101693.72;;;-3.22;89.73
35331;BME280;21441;52.190;20.910;2023-02-28T05:02:04;101693.59;;;-3.19;89.98
35331;BME280;21441;52.190;20.910;2023-02-28T05:04:32;101697.41;;;-3.29;90.29
35331;BME280;21441;52.190;20.910;2023-02-28T05:07:02;101699.03;;;-3.25;90.21
35331;BME280;21441;52.190;20.910;2023-02-28T05:09:30;101706.09;;;-3.28;90.74
35331;BME280;21441;52.190;20.910;2023-02-28T05:11:59;101699.41;;;-3.37;90.46
35331;BME280;21441;52.190;20.910;2023-02-28T05:14:26;101709.66;;;-3.31;90.79
35331;BME280;21441;52.190;20.910;2023-02-28T05:16:55;101713.00;;;-3.27;90.81
35331;BME280;21441;52.190;20.910;2023-02-28T05:19:22;101713.97;;;-3.30;91.04
35331;BME280;21441;52.190;20.910;2023-02-28T05:21:51;101684.88;;;-3.46;91.27
35331;BME280;21441;52.190;20.910;2023-02-28T05:24:19;101723.44;;;-3.27;90.90
35331;BME280;21441;52.190;20.910;2023-02-28T05:26:50;101730.44;;;-3.28;91.50
35331;BME280;21441;52.190;20.910;2023-02-28T05:29:18;101728.06;;;-3.36;92.37
35331;BME280;21441;52.190;20.910;2023-02-28T05:31:46;101720.38;;;-3.40;92.76
35331;BME280;21441;52.190;20.910;2023-02-28T05:34:15;101731.34;;;-3.29;93.44
35331;BME280;21441;52.190;20.910;2023-02-28T05:36:42;101727.97;;;-3.33;93.35
35331;BME280;21441;52.190;20.910;2023-02-28T05:39:10;101737.38;;;-3.27;93.68
35331;BME280;21441;52.190;20.910;2023-02-28T05:41:40;101732.22;;;-3.30;94.52
35331;BME280;21441;52.190;20.910;2023-02-28T05:44:08;101738.97;;;-3.23;95.20
35331;BME280;21441;52.190;20.910;2023-02-28T05:46:35;101733.69;;;-3.20;94.81
35331;BME280;21441;52.190;20.910;2023-02-28T05:49:04;101746.63;;;-3.17;94.90
35331;BME280;21441;52.190;20.910;2023-02-28T05:51:33;101745.59;;;-3.11;95.40
35331;BME280;21441;52.190;20.910;2023-02-28T05:54:02;101756.66;;;-3.03;95.30
35331;BME280;21441;52.190;20.910;2023-02-28T05:56:30;101753.00;;;-2.97;95.19
35331;BME280;21441;52.190;20.910;2023-02-28T05:58:57;101737.50;;;-3.03;95.17
35331;BME280;21441;52.190;20.910;2023-02-28T06:01:32;101754.56;;;-2.92;95.56
35331;BME280;21441;52.190;20.910;2023-02-28T06:04:00;101760.03;;;-2.71;95.21
35331;BME280;21441;52.190;20.910;2023-02-28T06:06:28;101754.66;;;-2.66;94.39
35331;BME280;21441;52.190;20.910;2023-02-28T06:08:57;101756.03;;;-2.55;93.61
35331;BME280;21441;52.190;20.910;2023-02-28T06:11:25;101761.00;;;-2.47;93.09
35331;BME280;21441;52.190;20.910;2023-02-28T06:13:53;101749.88;;;-2.54;92.56
35331;BME280;21441;52.190;20.910;2023-02-28T06:16:21;101764.13;;;-2.37;91.17
35331;BME280;21441;52.190;20.910;2023-02-28T06:18:49;101768.31;;;-2.32;90.16
35331;BME280;21441;52.190;20.910;2023-02-28T06:21:16;101763.53;;;-2.19;89.55
35331;BME280;21441;52.190;20.910;2023-02-28T06:23:44;101759.84;;;-2.13;88.38
35331;BME280;21441;52.190;20.910;2023-02-28T06:26:13;101761.25;;;-2.03;87.59
35331;BME280;21441;52.190;20.910;2023-02-28T06:28:40;101761.69;;;-1.90;86.45
35331;BME280;21441;52.190;20.910;2023-02-28T06:31:09;101748.44;;;-1.85;84.71
35331;BME280;21441;52.190;20.910;2023-02-28T06:33:38;101763.53;;;-1.69;83.90
35331;BME280;21441;52.190;20.910;2023-02-28T06:36:07;101756.16;;;-1.57;82.94
35331;BME280;21441;52.190;20.910;2023-02-28T06:38:34;101730.50;;;-1.71;82.35
35331;BME280;21441;52.190;20.910;2023-02-28T06:41:03;101750.22;;;-1.39;81.59
35331;BME280;21441;52.190;20.910;2023-02-28T06:43:33;101743.59;;;-1.26;80.87
35331;BME280;21441;52.190;20.910;2023-02-28T06:46:03;101739.88;;;-1.18;79.21
35331;BME280;21441;52.190;20.910;2023-02-28T06:48:31;101746.16;;;-1.00;78.15
35331;BME280;21441;52.190;20.910;2023-02-28T06:51:02;101741.38;;;-0.91;76.75
35331;BME280;21441;52.190;20.910;2023-02-28T06:53:30;101718.97;;;-0.76;74.73
35331;BME280;21441;52.190;20.910;2023-02-28T06:55:57;101728.28;;;-0.69;73.27
35331;BME280;21441;52.190;20.910;2023-02-28T06:58:25;101731.00;;;-0.50;71.91
35331;BME280;21441;52.190;20.910;2023-02-28T07:00:54;101726.44;;;-0.24;68.08
35331;BME280;21441;52.190;20.910;2023-02-28T07:03:21;101734.25;;;-0.02;66.78
35331;BME280;21441;52.190;20.910;2023-02-28T07:05:49;101727.09;;;0.41;63.19
35331;BME280;21441;52.190;20.910;2023-02-28T07:08:17;101730.72;;;0.76;60.06
35331;BME280;21441;52.190;20.910;2023-02-28T07:10:44;101717.00;;;1.25;59.60
35331;BME280;21441;52.190;20.910;2023-02-28T07:13:11;101718.91;;;1.75;56.88
35331;BME280;21441;52.190;20.910;2023-02-28T07:15:39;101718.88;;;1.40;55.70
35331;BME280;21441;52.190;20.910;2023-02-28T07:18:08;101722.28;;;1.42;55.44
35331;BME280;21441;52.190;20.910;2023-02-28T07:20:35;101726.56;;;1.45;55.11
35331;BME280;21441;52.190;20.910;2023-02-28T07:23:02;101723.91;;;1.62;53.75
35331;BME280;21441;52.190;20.910;2023-02-28T07:25:30;101728.63;;;1.73;53.51
35331;BME280;21441;52.190;20.910;2023-02-28T07:27:57;101725.47;;;1.84;52.85
35331;BME280;21441;52.190;20.910;2023-02-28T07:30:26;101734.38;;;1.81;53.32
35331;BME280;21441;52.190;20.910;2023-02-28T07:32:53;101712.06;;;1.89;53.90
35331;BME280;21441;52.190;20.910;2023-02-28T07:35:23;101727.31;;;1.82;53.87
35331;BME280;21441;52.190;20.910;2023-02-28T07:37:50;101725.88;;;1.76;53.61
35331;BME280;21441;52.190;20.910;2023-02-28T07:40:18;101724.09;;;1.77;53.61
35331;BME280;21441;52.190;20.910;2023-02-28T07:42:46;101719.88;;;2.08;52.26
35331;BME280;21441;52.190;20.910;2023-02-28T07:45:13;101715.19;;;1.79;52.61
35331;BME280;21441;52.190;20.910;2023-02-28T07:47:41;101700.09;;;1.65;52.89
35331;BME280;21441;52.190;20.910;2023-02-28T07:50:11;101724.56;;;1.50;51.53
35331;BME280;21441;52.190;20.910;2023-02-28T07:52:41;101710.91;;;1.24;51.27
35331;BME280;21441;52.190;20.910;2023-02-28T07:55:09;101731.19;;;1.40;52.25
35331;BME280;21441;52.190;20.910;2023-02-28T07:57:37;101728.09;;;1.49;53.39
35331;BME280;21441;52.190;20.910;2023-02-28T08:00:06;101716.59;;;1.15;53.19
35331;BME280;21441;52.190;20.910;2023-02-28T08:02:36;101718.75;;;1.07;53.57
35331;BME280;21441;52.190;20.910;2023-02-28T08:05:04;101720.63;;;1.22;52.54
35331;BME280;21441;52.190;20.910;2023-02-28T08:07:32;101722.34;;;1.23;52.36
35331;BME280;21441;52.190;20.910;2023-02-28T08:10:02;101729.66;;;1.53;52.47
35331;BME280;21441;52.190;20.910;2023-02-28T08:12:31;101733.75;;;1.94;52.44
35331;BME280;21441;52.190;20.910;2023-02-28T08:14:58;101735.09;;;1.85;52.38
35331;BME280;21441;52.190;20.910;2023-02-28T08:17:26;101728.56;;;1.92;51.07
35331;BME280;21441;52.190;20.910;2023-02-28T08:19:53;101721.94;;;1.68;50.43
35331;BME280;21441;52.190;20.910;2023-02-28T08:22:21;101724.16;;;1.75;50.70
35331;BME280;21441;52.190;20.910;2023-02-28T08:24:48;101727.94;;;2.04;51.78
35331;BME280;21441;52.190;20.910;2023-02-28T08:27:17;101719.59;;;2.30;50.74
35331;BME280;21441;52.190;20.910;2023-02-28T08:29:45;101719.78;;;2.26;50.12
35331;BME280;21441;52.190;20.910;2023-02-28T08:32:12;101716.78;;;1.99;49.75
35331;BME280;21441;52.190;20.910;2023-02-28T08:34:40;101723.25;;;1.59;49.90
35331;BME280;21441;52.190;20.910;2023-02-28T08:37:07;101711.88;;;1.58;50.32
35331;BME280;21441;52.190;20.910;2023-02-28T08:39:35;101707.03;;;1.32;50.86
35331;BME280;21441;52.190;20.910;2023-02-28T08:42:03;101725.81;;;1.60;50.97
35331;BME280;21441;52.190;20.910;2023-02-28T08:44:32;101716.50;;;1.71;50.95
35331;BME280;21441;52.190;20.910;2023-02-28T08:47:00;101709.34;;;2.08;51.20
35331;BME280;21441;52.190;20.910;2023-02-28T08:49:27;101713.94;;;2.37;50.05
35331;BME280;21441;52.190;20.910;2023-02-28T08:51:55;101718.97;;;2.74;49.11
35331;BME280;21441;52.190;20.910;2023-02-28T08:54:23;101726.88;;;2.89;48.82
35331;BME280;21441;52.190;20.910;2023-02-28T08:56:50;101719.75;;;3.07;49.00
35331;BME280;21441;52.190;20.910;2023-02-28T08:59:17;101705.97;;;2.86;49.04
35331;BME280;21441;52.190;20.910;2023-02-28T09:01:47;101722.53;;;3.04;48.49
35331;BME280;21441;52.190;20.910;2023-02-28T09:04:14;101721.41;;;3.24;48.06
35331;BME280;21441;52.190;20.910;2023-02-28T09:06:42;101728.91;;;3.32;48.07
35331;BME280;21441;52.190;20.910;2023-02-28T09:09:10;101714.50;;;3.38;47.59
35331;BME280;21441;52.190;20.910;2023-02-28T09:11:37;101726.53;;;2.96;47.56
35331;BME280;21441;52.190;20.910;2023-02-28T09:14:05;101715.06;;;2.65;48.54
35331;BME280;21441;52.190;20.910;2023-02-28T09:16:33;101725.25;;;2.55;48.48
35331;BME280;21441;52.190;20.910;2023-02-28T09:19:02;101726.88;;;2.74;48.75
35331;BME280;21441;52.190;20.910;2023-02-28T09:21:30;101727.53;;;3.09;48.11
35331;BME280;21441;52.190;20.910;2023-02-28T09:23:57;101733.47;;;3.28;48.06
35331;BME280;21441;52.190;20.910;2023-02-28T09:26:27;101740.47;;;3.60;46.80
35331;BME280;21441;52.190;20.910;2023-02-28T09:28:55;101735.97;;;3.62;46.65
35331;BME280;21441;52.190;20.910;2023-02-28T09:31:25;101735.59;;;3.98;46.30
35331;BME280;21441;52.190;20.910;2023-02-28T09:33:55;101731.66;;;4.34;45.83
35331;BME280;21441;52.190;20.910;2023-02-28T09:36:25;101727.47;;;4.59;45.34
35331;BME280;21441;52.190;20.910;2023-02-28T09:38:54;101734.63;;;4.85;44.62
35331;BME280;21441;52.190;20.910;2023-02-28T09:41:23;101721.72;;;5.35;43.71
35331;BME280;21441;52.190;20.910;2023-02-28T09:43:56;101720.88;;;5.34;43.23
35331;BME280;21441;52.190;20.910;2023-02-28T09:46:31;101722.72;;;4.92;43.90
35331;BME280;21441;52.190;20.910;2023-02-28T09:49:02;101732.22;;;4.68;44.55
35331;BME280;21441;52.190;20.910;2023-02-28T09:51:39;101727.41;;;4.46;44.58
35331;BME280;21441;52.190;20.910;2023-02-28T09:54:13;101716.97;;;4.71;44.18
35331;BME280;21441;52.190;20.910;2023-02-28T09:56:47;101717.28;;;4.67;43.35
35331;BME280;21441;52.190;20.910;2023-02-28T09:59:28;101724.47;;;5.06;43.96
35331;BME280;21441;52.190;20.910;2023-02-28T10:02:04;101726.03;;;5.63;43.08
35331;BME280;21441;52.190;20.910;2023-02-28T10:04:42;101715.91;;;6.34;41.72
35331;BME280;21441;52.190;20.910;2023-02-28T10:07:20;101714.97;;;6.35;40.64
35331;BME280;21441;52.190;20.910;2023-02-28T10:09:53;101708.41;;;7.50;39.75
35331;BME280;21441;52.190;20.910;2023-02-28T10:12:22;101713.50;;;9.33;37.02
35331;BME280;21441;52.190;20.910;2023-02-28T10:14:52;101688.81;;;11.64;33.87
35331;BME280;21441;52.190;20.910;2023-02-28T10:17:23;101670.56;;;12.72;31.43
35331;BME280;21441;52.190;20.910;2023-02-28T10:19:58;101680.28;;;12.73;31.10
35331;BME280;21441;52.190;20.910;2023-02-28T10:22:40;101679.69;;;13.95;29.58
35331;BME280;21441;52.190;20.910;2023-02-28T10:25:18;101662.78;;;14.63;28.52
35331;BME280;21441;52.190;20.910;2023-02-28T10:27:47;101662.50;;;16.05;27.48
35331;BME280;21441;52.190;20.910;2023-02-28T10:30:14;101658.22;;;18.12;24.70
35331;BME280;21441;52.190;20.910;2023-02-28T10:32:47;101646.41;;;20.07;23.68
35331;BME280;21441;52.190;20.910;2023-02-28T10:35:18;101635.19;;;22.44;21.32
35331;BME280;21441;52.190;20.910;2023-02-28T10:37:50;101633.03;;;23.74;20.58
35331;BME280;21441;52.190;20.910;2023-02-28T10:40:30;101623.88;;;24.42;18.94
35331;BME280;21441;52.190;20.910;2023-02-28T10:43:00;101633.13;;;25.67;18.26
35331;BME280;21441;52.190;20.910;2023-02-28T10:45:29;101631.16;;;24.29;18.32
35331;BME280;21441;52.190;20.910;2023-02-28T10:47:59;101627.13;;;23.95;18.94
35331;BME280;21441;52.190;20.910;2023-02-28T10:50:31;101626.59;;;26.89;17.21
35331;BME280;21441;52.190;20.910;2023-02-28T10:53:16;101618.69;;;28.38;16.25
35331;BME280;21441;52.190;20.910;2023-02-28T10:55:56;101621.50;;;30.20;15.09
35331;BME280;21441;52.190;20.910;2023-02-28T10:58:27;101615.09;;;29.57;15.07
35331;BME280;21441;52.190;20.910;2023-02-28T11:00:55;101604.47;;;30.23;14.90
35331;BME280;21441;52.190;20.910;2023-02-28T11:03:25;101608.75;;;31.13;13.95
35331;BME280;21441;52.190;20.910;2023-02-28T11:05:52;101563.88;;;32.03;13.60
35331;BME280;21441;52.190;20.910;2023-02-28T11:08:21;101598.78;;;33.71;12.66
35331;BME280;21441;52.190;20.910;2023-02-28T11:10:55;101586.53;;;32.45;12.94
35331;BME280;21441;52.190;20.910;2023-02-28T11:13:27;101607.72;;;29.62;13.74
35331;BME280;21441;52.190;20.910;2023-02-28T11:15:57;101593.56;;;33.40;12.13
35331;BME280;21441;52.190;20.910;2023-02-28T11:18:29;101598.06;;;33.84;12.29
35331;BME280;21441;52.190;20.910;2023-02-28T11:20:59;101586.91;;;35.50;11.51
35331;BME280;21441;52.190;20.910;2023-02-28T11:23:31;101565.75;;;37.13;10.81
35331;BME280;21441;52.190;20.910;2023-02-28T11:26:03;101572.78;;;36.66;10.48
35331;BME280;21441;52.190;20.910;2023-02-28T11:28:37;101585.44;;;32.46;11.95
35331;BME280;21441;52.190;20.910;2023-02-28T11:31:14;101589.16;;;31.35;12.59
35331;BME280;21441;52.190;20.910;2023-02-28T11:33:44;101581.19;;;31.49;12.88
35331;BME280;21441;52.190;20.910;2023-02-28T11:36:13;101565.03;;;35.62;11.18
35331;BME280;21441;52.190;20.910;2023-02-28T11:38:43;101578.13;;;34.82;11.14
35331;BME280;21441;52.190;20.910;2023-02-28T11:41:31;101567.91;;;33.83;11.52
35331;BME280;21441;52.190;20.910;2023-02-28T11:44:18;101566.41;;;34.52;11.45
35331;BME280;21441;52.190;20.910;2023-02-28T11:46:52;101550.53;;;35.51;11.21
35331;BME280;21441;52.190;20.910;2023-02-28T11:49:30;101553.69;;;34.33;11.44
35331;BME280;21441;52.190;20.910;2023-02-28T11:52:02;101553.31;;;36.66;10.67
35331;BME280;21441;52.190;20.910;2023-02-28T11:57:36;101547.34;;;34.13;11.44
35331;BME280;21441;52.190;20.910;2023-02-28T12:00:24;101541.47;;;34.71;11.18
35331;BME280;21441;52.190;20.910;2023-02-28T12:03:04;101540.53;;;35.92;10.50
35331;BME280;21441;52.190;20.910;2023-02-28T12:05:41;101538.44;;;32.91;11.96
35331;BME280;21441;52.190;20.910;2023-02-28T12:08:23;101537.66;;;31.20;12.30
35331;BME280;21441;52.190;20.910;2023-02-28T12:11:06;101543.22;;;33.14;11.67
35331;BME280;21441;52.190;20.910;2023-02-28T12:13:46;101531.34;;;34.81;11.10
35331;BME280;21441;52.190;20.910;2023-02-28T12:16:30;101533.59;;;35.81;10.37
35331;BME280;21441;52.190;20.910;2023-02-28T12:19:13;101540.00;;;34.22;11.15
35331;BME280;21441;52.190;20.910;2023-02-28T12:24:51;101521.97;;;38.72;9.70
35331;BME280;21441;52.190;20.910;2023-02-28T12:27:27;101522.31;;;37.92;9.88
35331;BME280;21441;52.190;20.910;2023-02-28T12:29:58;101519.09;;;37.50;9.65
35331;BME280;21441;52.190;20.910;2023-02-28T12:32:31;101523.53;;;33.21;11.31
35331;BME280;21441;52.190;20.910;2023-02-28T12:35:02;101523.38;;;34.22;10.97
35331;BME280;21441;52.190;20.910;2023-02-28T12:37:36;101522.75;;;33.39;11.51
35331;BME280;21441;52.190;20.910;2023-02-28T12:40:12;101510.09;;;33.81;11.33
35331;BME280;21441;52.190;20.910;2023-02-28T12:42:44;101508.91;;;34.44;10.83
35331;BME280;21441;52.190;20.910;2023-02-28T12:45:17;101500.81;;;35.41;10.60
35331;BME280;21441;52.190;20.910;2023-02-28T12:47:49;101506.66;;;37.56;9.65
35331;BME280;21441;52.190;20.910;2023-02-28T12:50:18;101494.31;;;36.69;10.16
35331;BME280;21441;52.190;20.910;2023-02-28T12:52:51;101493.59;;;38.70;9.48
35331;BME280;21441;52.190;20.910;2023-02-28T12:55:29;101500.41;;;37.42;10.11
35331;BME280;21441;52.190;20.910;2023-02-28T12:58:08;101498.75;;;39.07;9.52
35331;BME280;21441;52.190;20.910;2023-02-28T13:00:53;101505.44;;;38.24;9.55
35331;BME280;21441;52.190;20.910;2023-02-28T13:03:41;101490.72;;;39.44;9.32
35331;BME280;21441;52.190;20.910;2023-02-28T13:06:35;101501.16;;;37.25;9.81
35331;BME280;21441;52.190;20.910;2023-02-28T13:09:10;101502.19;;;38.13;9.75
35331;BME280;21441;52.190;20.910;2023-02-28T13:11:42;101492.47;;;37.84;9.54
35331;BME280;21441;52.190;20.910;2023-02-28T13:14:23;101499.47;;;37.55;10.02